createdAt,value
2018-04-12T00:01:42.272Z,10.90
2018-04-12T00:04:09.808Z,10.90
2018-04-12T00:06:37.372Z,10.90
2018-04-12T00:09:05.711Z,10.90
2018-04-12T00:11:33.281Z,10.90
2018-04-12T00:14:00.823Z,10.90
2018-04-12T00:16:28.399Z,11.00
2018-04-12T00:18:55.932Z,11.10
2018-04-12T00:21:24.290Z,11.10
2018-04-12T00:23:51.842Z,11.10
2018-04-12T00:26:19.388Z,11.10
2018-04-12T00:28:46.946Z,11.20
2018-04-12T00:31:14.481Z,11.20
2018-04-12T00:33:42.039Z,11.20
2018-04-12T00:36:09.579Z,11.20
2018-04-12T00:38:37.128Z,11.30
2018-04-12T00:41:05.437Z,11.20
2018-04-12T00:43:32.999Z,11.20
2018-04-12T00:46:00.543Z,11.20
2018-04-12T00:48:28.087Z,11.20
2018-04-12T00:50:55.650Z,11.10
2018-04-12T00:53:34.989Z,11.10
2018-04-12T00:56:02.532Z,11.00
2018-04-12T00:58:30.848Z,11.00
2018-04-12T01:00:58.397Z,10.90
2018-04-12T01:03:25.959Z,10.90
2018-04-12T01:05:53.517Z,10.80
2018-04-12T01:08:21.063Z,10.80
2018-04-12T01:10:48.603Z,10.80
2018-04-12T01:13:16.923Z,10.80
2018-04-12T01:15:44.443Z,10.80
2018-04-12T01:18:12.770Z,10.80
2018-04-12T01:20:40.314Z,10.80
2018-04-12T01:23:07.865Z,10.80
2018-04-12T01:25:35.406Z,10.80
2018-04-12T01:28:02.972Z,10.80
2018-04-12T01:30:30.531Z,10.80
2018-04-12T01:33:10.075Z,10.70
2018-04-12T01:35:37.640Z,10.70
2018-04-12T01:38:05.200Z,10.70
2018-04-12T01:40:32.744Z,10.60
2018-04-12T01:43:00.284Z,10.60
2018-04-12T01:45:28.572Z,10.70
2018-04-12T01:47:56.171Z,10.60
2018-04-12T01:50:23.741Z,10.70
2018-04-12T01:52:51.331Z,10.70
2018-04-12T01:55:19.639Z,10.70
2018-04-12T01:57:47.217Z,10.70
2018-04-12T02:00:14.750Z,10.70
2018-04-12T02:02:42.338Z,10.70
2018-04-12T02:05:09.888Z,10.70
2018-04-12T02:07:37.439Z,10.60
2018-04-12T02:10:04.987Z,10.60
2018-04-12T02:12:32.548Z,10.60
2018-04-12T02:15:00.079Z,10.60
2018-04-12T02:17:28.424Z,10.60
2018-04-12T02:19:55.974Z,10.60
2018-04-12T02:22:23.539Z,10.60
2018-04-12T02:24:51.078Z,10.60
2018-04-12T02:27:18.644Z,10.60
2018-04-12T02:29:46.177Z,10.60
2018-04-12T02:32:13.743Z,10.60
2018-04-12T02:34:41.275Z,10.50
2018-04-12T02:37:08.856Z,10.50
2018-04-12T02:39:36.443Z,10.50
2018-04-12T02:42:03.982Z,10.50
2018-04-12T02:44:31.543Z,10.50
2018-04-12T02:46:59.078Z,10.50
2018-04-12T02:49:26.662Z,10.50
2018-04-12T02:51:54.216Z,10.40
2018-04-12T02:54:21.802Z,10.40
2018-04-12T02:56:49.397Z,10.40
2018-04-12T02:59:16.972Z,10.40
2018-04-12T03:01:44.549Z,10.40
2018-04-12T03:04:12.129Z,10.40
2018-04-12T03:06:39.675Z,10.40
2018-04-12T03:09:07.268Z,10.40
2018-04-12T03:11:34.820Z,10.40
2018-04-12T03:14:02.407Z,10.50
2018-04-12T03:16:30.715Z,10.50
2018-04-12T03:18:58.267Z,10.40
2018-04-12T03:21:25.839Z,10.50
2018-04-12T03:23:53.408Z,10.50
2018-04-12T03:26:20.948Z,10.50
2018-04-12T03:28:48.503Z,10.50
2018-04-12T03:31:16.032Z,10.40
2018-04-12T03:33:44.360Z,10.40
2018-04-12T03:36:11.934Z,10.40
2018-04-12T03:38:39.484Z,10.50
2018-04-12T03:41:07.040Z,10.50
2018-04-12T03:43:34.613Z,10.50
2018-04-12T03:46:02.168Z,10.60
2018-04-12T03:48:29.740Z,10.70
2018-04-12T03:50:57.285Z,10.80
2018-04-12T03:53:24.853Z,10.90
2018-04-12T03:55:52.398Z,10.90
2018-04-12T03:58:19.967Z,10.90
2018-04-12T04:00:47.523Z,10.90
2018-04-12T04:03:15.081Z,10.90
2018-04-12T04:05:42.633Z,10.90
2018-04-12T04:08:10.203Z,10.90
2018-04-12T04:10:37.739Z,10.90
2018-04-12T04:13:05.303Z,10.90
2018-04-12T04:15:45.660Z,10.80
2018-04-12T04:18:24.966Z,10.80
2018-04-12T04:21:03.921Z,10.80
2018-04-12T04:23:31.504Z,10.80
2018-04-12T04:25:59.050Z,10.80
2018-04-12T04:28:26.616Z,10.80
2018-04-12T04:30:54.150Z,10.90
2018-04-12T04:33:21.712Z,10.90
2018-04-12T04:35:49.259Z,10.80
2018-04-12T04:38:16.827Z,10.80
2018-04-12T04:40:44.440Z,10.80
2018-04-12T04:43:12.772Z,10.70
2018-04-12T04:45:40.371Z,10.70
2018-04-12T04:48:08.703Z,10.70
2018-04-12T04:50:36.279Z,10.60
2018-04-12T04:53:03.833Z,10.70
2018-04-12T04:55:31.424Z,10.60
2018-04-12T04:57:59.726Z,10.70
2018-04-12T05:00:27.275Z,10.60
2018-04-12T05:02:54.800Z,10.70
2018-04-12T05:05:22.344Z,10.60
2018-04-12T05:07:49.890Z,10.60
2018-04-12T05:10:17.436Z,10.60
2018-04-12T05:12:44.963Z,10.60
2018-04-12T05:15:13.275Z,10.60
2018-04-12T05:17:40.817Z,10.60
2018-04-12T05:20:08.354Z,10.60
2018-04-12T05:22:35.888Z,10.60
2018-04-12T05:25:03.428Z,10.60
2018-04-12T05:27:30.953Z,10.60
2018-04-12T05:29:58.509Z,10.70
2018-04-12T05:32:26.052Z,10.80
2018-04-12T05:34:53.657Z,10.90
2018-04-12T05:37:21.163Z,11.00
2018-04-12T05:39:49.472Z,11.20
2018-04-12T05:42:17.000Z,11.20
2018-04-12T05:44:44.543Z,11.30
2018-04-12T05:47:12.840Z,11.40
2018-04-12T05:49:40.398Z,11.40
2018-04-12T05:52:07.940Z,11.50
2018-04-12T05:54:36.242Z,11.70
2018-04-12T05:57:03.759Z,11.70
2018-04-12T05:59:31.307Z,11.80
2018-04-12T06:01:58.830Z,11.80
2018-04-12T06:04:26.371Z,11.90
2018-04-12T06:06:53.912Z,12.00
2018-04-12T06:09:22.219Z,13.50
2018-04-12T06:11:49.748Z,13.40
2018-04-12T06:14:17.307Z,14.70
2018-04-12T06:16:44.841Z,15.80
2018-04-12T06:19:12.371Z,16.90
2018-04-12T06:21:39.911Z,17.90
2018-04-12T06:24:07.551Z,18.50
2018-04-12T06:26:35.075Z,18.90
2018-04-12T06:29:02.621Z,19.60
2018-04-12T06:31:30.165Z,19.90
2018-04-12T06:33:57.680Z,20.10
2018-04-12T06:36:25.231Z,20.30
2018-04-12T06:38:53.523Z,20.00
2018-04-12T06:41:21.070Z,20.00
2018-04-12T06:43:48.607Z,20.60
2018-04-12T06:46:16.919Z,20.30
2018-04-12T06:48:44.443Z,20.30
2018-04-12T06:51:12.753Z,20.60
2018-04-12T06:53:40.280Z,20.60
2018-04-12T06:56:08.583Z,19.30
2018-04-12T06:58:36.105Z,19.20
2018-04-12T07:01:03.641Z,18.70
2018-04-12T07:03:31.155Z,18.30
2018-04-12T07:05:58.729Z,18.60
2018-04-12T07:08:26.239Z,19.10
2018-04-12T07:10:54.543Z,19.60
2018-04-12T07:13:22.075Z,19.50
2018-04-12T07:15:49.613Z,19.90
2018-04-12T07:18:17.139Z,19.90
2018-04-12T07:20:44.680Z,19.20
2018-04-12T07:23:12.232Z,20.10
2018-04-12T07:25:39.781Z,20.40
2018-04-12T07:28:07.303Z,19.60
2018-04-12T07:30:34.840Z,19.40
2018-04-12T07:33:02.359Z,19.50
2018-04-12T07:35:29.900Z,19.60
2018-04-12T07:37:58.190Z,19.60
2018-04-12T07:40:26.495Z,19.70
2018-04-12T07:42:54.021Z,19.70
2018-04-12T07:45:21.563Z,20.10
2018-04-12T07:47:49.086Z,20.50
2018-04-12T07:50:16.640Z,20.50
2018-04-12T07:52:44.170Z,20.40
2018-04-12T07:55:11.711Z,20.70
2018-04-12T07:57:40.000Z,20.10
2018-04-12T08:00:07.546Z,20.10
2018-04-12T08:02:35.830Z,19.80
2018-04-12T08:05:03.378Z,19.80
2018-04-12T08:07:31.667Z,20.20
2018-04-12T08:09:59.212Z,20.20
2018-04-12T08:12:27.495Z,20.40
2018-04-12T08:14:55.043Z,20.40
2018-04-12T08:17:23.342Z,21.80
2018-04-12T08:19:50.885Z,21.80
2018-04-12T08:22:19.183Z,21.50
2018-04-12T08:24:46.715Z,21.50
2018-04-12T08:27:15.004Z,20.60
2018-04-12T08:29:42.524Z,20.60
2018-04-12T08:32:10.067Z,20.80
2018-04-12T08:34:37.632Z,20.90
2018-04-12T08:37:05.157Z,21.60
2018-04-12T08:39:32.675Z,22.60
2018-04-12T08:42:00.980Z,23.30
2018-04-12T08:44:28.503Z,23.30
2018-04-12T08:46:56.043Z,24.20
2018-04-12T08:49:23.568Z,25.20
2018-04-12T08:51:51.108Z,26.30
2018-04-12T08:54:18.635Z,25.40
2018-04-12T08:56:46.179Z,27.00
2018-04-12T08:59:13.743Z,27.90
2018-04-12T09:01:41.279Z,27.90
2018-04-12T09:04:08.807Z,26.20
2018-04-12T09:06:36.353Z,25.10
2018-04-12T09:09:03.876Z,24.90
2018-04-12T09:11:31.432Z,23.60
2018-04-12T09:13:58.956Z,24.00
2018-04-12T09:16:26.498Z,24.00
2018-04-12T09:18:54.018Z,23.70
2018-04-12T09:21:21.563Z,24.00
2018-04-12T09:23:49.086Z,23.90
2018-04-12T09:26:16.621Z,23.20
2018-04-12T09:28:44.151Z,23.00
2018-04-12T09:31:12.460Z,22.40
2018-04-12T09:33:39.979Z,22.40
2018-04-12T09:36:07.527Z,22.20
2018-04-12T09:38:35.044Z,22.40
2018-04-12T09:41:02.588Z,22.00
2018-04-12T09:43:30.123Z,21.50
2018-04-12T09:45:58.419Z,21.20
2018-04-12T09:48:25.968Z,21.20
2018-04-12T09:50:53.491Z,21.00
2018-04-12T09:53:21.049Z,21.00
2018-04-12T09:55:48.677Z,21.30
2018-04-12T09:58:16.221Z,21.60
2018-04-12T10:00:43.754Z,21.60
2018-04-12T10:03:12.859Z,21.80
2018-04-12T10:05:46.831Z,21.70
2018-04-12T10:08:20.035Z,21.70
2018-04-12T10:10:47.550Z,21.50
2018-04-12T10:13:15.087Z,21.50
2018-04-12T10:15:42.611Z,21.90
2018-04-12T10:18:10.936Z,22.40
2018-04-12T10:20:38.471Z,22.40
2018-04-12T10:23:06.057Z,22.80
2018-04-12T10:25:34.365Z,23.80
2018-04-12T10:28:01.926Z,23.80
2018-04-12T10:30:29.447Z,24.60
2018-04-12T10:32:56.987Z,24.50
2018-04-12T10:35:24.515Z,23.50
2018-04-12T10:37:52.072Z,22.70
2018-04-12T10:40:19.601Z,22.80
2018-04-12T10:42:47.132Z,22.50
2018-04-12T10:45:14.670Z,22.50
2018-04-12T10:47:42.955Z,23.20
2018-04-12T10:50:10.495Z,23.20
2018-04-12T10:52:38.789Z,23.80
2018-04-12T10:55:06.327Z,23.80
2018-04-12T10:57:34.621Z,23.60
2018-04-12T11:00:02.163Z,23.60
2018-04-12T11:02:30.452Z,22.80
2018-04-12T11:04:58.027Z,22.80
2018-04-12T11:07:25.548Z,22.50
2018-04-12T11:09:53.858Z,23.60
2018-04-12T11:12:21.379Z,23.50
2018-04-12T11:14:49.707Z,23.60
2018-04-12T11:17:17.222Z,23.60
2018-04-12T11:19:45.528Z,23.10
2018-04-12T11:22:13.810Z,22.90
2018-04-12T11:24:41.373Z,22.90
2018-04-12T11:27:08.919Z,22.70
2018-04-12T11:29:36.452Z,23.10
2018-04-12T11:32:04.762Z,23.30
2018-04-12T11:34:32.329Z,23.30
2018-04-12T11:36:59.859Z,23.30
2018-04-12T11:39:27.383Z,23.20
2018-04-12T11:41:54.931Z,23.20
2018-04-12T11:44:22.460Z,22.70
2018-04-12T11:46:50.011Z,22.80
2018-04-12T11:49:17.542Z,23.70
2018-04-12T11:51:45.090Z,24.70
2018-04-12T11:54:13.375Z,25.60
2018-04-12T11:56:41.726Z,25.10
2018-04-12T11:59:09.272Z,25.00
2018-04-12T12:01:36.839Z,25.10
2018-04-12T12:04:04.348Z,25.40
2018-04-12T12:06:31.895Z,25.20
2018-04-12T12:08:59.419Z,24.60
2018-04-12T12:11:26.959Z,24.50
2018-04-12T12:13:54.524Z,24.30
2018-04-12T12:16:22.066Z,24.50
2018-04-12T12:18:49.584Z,24.20
2018-04-12T12:21:17.130Z,24.20
2018-04-12T12:23:45.458Z,23.30
2018-04-12T12:26:12.972Z,23.30
2018-04-12T12:28:40.513Z,23.30
2018-04-12T12:31:08.814Z,22.90
2018-04-12T12:33:36.355Z,22.90
2018-04-12T12:36:04.635Z,23.20
2018-04-12T12:38:32.940Z,23.40
2018-04-12T12:41:00.470Z,23.40
2018-04-12T12:43:28.016Z,23.90
2018-04-12T12:45:56.311Z,23.70
2018-04-12T12:48:23.854Z,23.70
2018-04-12T12:50:52.140Z,23.70
2018-04-12T12:53:20.455Z,23.20
2018-04-12T12:55:47.987Z,23.20
2018-04-12T12:58:15.528Z,22.90
2018-04-12T13:00:43.817Z,22.50
2018-04-12T13:03:11.376Z,22.40
2018-04-12T13:05:38.895Z,22.90
2018-04-12T13:08:06.447Z,23.30
2018-04-12T13:10:33.972Z,23.60
2018-04-12T13:13:01.506Z,23.80
2018-04-12T13:15:29.027Z,23.70
2018-04-12T13:17:56.559Z,23.50
2018-04-12T13:20:24.305Z,23.60
2018-04-12T13:22:51.859Z,23.70
2018-04-12T13:25:19.384Z,23.10
2018-04-12T13:27:46.903Z,23.30
2018-04-12T13:30:14.439Z,23.10
2018-04-12T13:32:41.973Z,22.50
2018-04-12T13:35:09.519Z,22.00
2018-04-12T13:37:37.811Z,22.00
2018-04-12T13:40:05.353Z,22.00
2018-04-12T13:42:33.647Z,22.10
2018-04-12T13:45:01.187Z,22.10
2018-04-12T13:47:29.476Z,22.40
2018-04-12T13:49:57.011Z,22.40
2018-04-12T13:52:24.580Z,22.30
2018-04-12T13:54:52.925Z,22.60
2018-04-12T13:57:20.434Z,22.60
2018-04-12T13:59:48.000Z,22.70
2018-04-12T14:02:15.523Z,22.60
2018-04-12T14:04:43.848Z,22.40
2018-04-12T14:07:11.387Z,22.40
2018-04-12T14:09:38.953Z,22.40
2018-04-12T14:12:06.484Z,22.30
2018-04-12T14:14:34.788Z,22.10
2018-04-12T14:17:02.311Z,22.10
2018-04-12T14:19:30.620Z,22.00
2018-04-12T14:21:58.141Z,22.00
2018-04-12T14:24:25.691Z,21.90
2018-04-12T14:26:53.211Z,21.70
2018-04-12T14:29:21.527Z,21.40
2018-04-12T14:31:49.052Z,21.40
2018-04-12T14:34:16.571Z,21.30
2018-04-12T14:36:44.119Z,21.20
2018-04-12T14:39:12.408Z,21.10
2018-04-12T14:41:39.951Z,21.10
2018-04-12T14:44:08.231Z,21.00
2018-04-12T14:46:36.535Z,20.90
2018-04-12T14:49:04.052Z,20.90
2018-04-12T14:51:32.368Z,20.80
2018-04-12T14:54:00.652Z,20.80
2018-04-12T14:56:28.187Z,20.80
2018-04-12T14:58:55.711Z,20.80
2018-04-12T15:01:23.243Z,20.70
2018-04-12T15:03:50.776Z,20.70
2018-04-12T15:06:18.321Z,20.70
2018-04-12T15:08:45.882Z,20.70
2018-04-12T15:11:13.424Z,20.70
2018-04-12T15:13:40.942Z,20.70
2018-04-12T15:16:08.479Z,20.60
2018-04-12T15:18:36.009Z,20.60
2018-04-12T15:21:03.555Z,20.60
2018-04-12T15:23:31.838Z,20.50
2018-04-12T15:26:00.156Z,20.50
2018-04-12T15:28:27.824Z,20.40
2018-04-12T15:30:55.371Z,20.30
2018-04-12T15:33:22.890Z,20.30
2018-04-12T15:35:51.174Z,20.20
2018-04-12T15:38:18.722Z,20.10
2018-04-12T15:40:47.008Z,20.20
2018-04-12T15:43:19.688Z,20.10
2018-04-12T15:45:47.216Z,20.00
2018-04-12T15:48:15.535Z,19.90
2018-04-12T15:50:43.050Z,19.90
2018-04-12T15:53:10.587Z,19.60
2018-04-12T15:55:38.119Z,19.40
2018-04-12T15:58:05.667Z,19.40
2018-04-12T16:00:33.195Z,19.30
2018-04-12T16:03:01.505Z,19.40
2018-04-12T16:05:29.049Z,19.40
2018-04-12T16:07:56.587Z,19.30
2018-04-12T16:10:24.872Z,19.60
2018-04-12T16:12:52.416Z,19.60
2018-04-12T16:15:20.704Z,19.90
2018-04-12T16:17:49.015Z,20.00
2018-04-12T16:20:16.541Z,20.00
2018-04-12T16:22:44.102Z,20.00
2018-04-12T16:25:11.645Z,20.00
2018-04-12T16:27:39.956Z,19.80
2018-04-12T16:30:07.474Z,19.80
2018-04-12T16:32:35.793Z,19.70
2018-04-12T16:35:03.311Z,19.70
2018-04-12T16:37:31.623Z,19.60
2018-04-12T16:39:59.151Z,19.60
2018-04-12T16:42:27.483Z,19.60
2018-04-12T16:44:55.013Z,19.60
2018-04-12T16:47:22.580Z,19.60
2018-04-12T16:49:50.148Z,19.60
2018-04-12T16:52:17.674Z,19.70
2018-04-12T16:54:45.227Z,19.60
2018-04-12T16:57:13.515Z,19.60
2018-04-12T16:59:41.068Z,19.50
2018-04-12T17:02:08.603Z,19.50
2018-04-12T17:04:36.917Z,19.40
2018-04-12T17:07:04.456Z,19.40
2018-04-12T17:09:32.000Z,19.30
2018-04-12T17:12:00.295Z,19.00
2018-04-12T17:14:27.835Z,18.90
2018-04-12T17:16:56.132Z,18.80
2018-04-12T17:19:23.683Z,18.80
2018-04-12T17:21:51.203Z,18.60
2018-04-12T17:24:18.750Z,18.50
2018-04-12T17:26:46.283Z,18.40
2018-04-12T17:29:13.832Z,18.40
2018-04-12T17:31:41.365Z,18.30
2018-04-12T17:34:09.689Z,18.20
2018-04-12T17:36:37.231Z,18.10
2018-04-12T17:39:04.787Z,18.00
2018-04-12T17:41:32.327Z,17.90
2018-04-12T17:43:59.876Z,17.70
2018-04-12T17:46:28.196Z,17.50
2018-04-12T17:48:55.731Z,17.40
2018-04-12T17:51:23.274Z,17.30
2018-04-12T17:53:50.834Z,17.10
2018-04-12T17:56:18.375Z,17.00
2018-04-12T17:58:46.699Z,16.70
2018-04-12T18:01:14.243Z,16.70
2018-04-12T18:03:41.771Z,16.60
2018-04-12T18:06:10.076Z,16.30
2018-04-12T18:08:37.608Z,16.20
2018-04-12T18:11:05.920Z,16.00
2018-04-12T18:13:33.453Z,15.90
2018-04-12T18:16:01.015Z,15.90
2018-04-12T18:18:28.584Z,15.80
2018-04-12T18:20:56.139Z,15.70
2018-04-12T18:23:23.676Z,15.60
2018-04-12T18:25:51.995Z,15.40
2018-04-12T18:28:19.528Z,15.40
2018-04-12T18:30:47.107Z,15.30
2018-04-12T18:33:14.647Z,15.20
2018-04-12T18:35:42.187Z,15.10
2018-04-12T18:38:10.483Z,15.00
2018-04-12T18:40:38.030Z,14.90
2018-04-12T18:43:06.314Z,14.90
2018-04-12T18:45:33.896Z,14.80
2018-04-12T18:48:01.664Z,14.80
2018-04-12T18:50:29.195Z,14.70
2018-04-12T18:52:56.958Z,14.60
2018-04-12T18:55:33.496Z,14.50
2018-04-12T18:58:01.356Z,14.50
2018-04-12T19:00:29.154Z,14.40
2018-04-12T19:02:57.063Z,14.30
2018-04-12T19:05:25.622Z,14.10
2018-04-12T19:07:53.324Z,14.10
2018-04-12T19:10:22.510Z,14.00
2018-04-12T19:12:51.082Z,13.90
2018-04-12T19:15:22.325Z,13.90
2018-04-12T19:17:50.627Z,13.80
2018-04-12T19:20:18.318Z,13.70
2018-04-12T19:22:46.250Z,13.70
2018-04-12T19:25:14.779Z,13.60
2018-04-12T19:27:42.681Z,13.60
2018-04-12T19:30:10.888Z,13.60
2018-04-12T19:32:39.818Z,13.50
2018-04-12T19:35:07.435Z,13.40
2018-04-12T19:37:35.405Z,13.40
2018-04-12T19:40:04.055Z,13.20
2018-04-12T19:42:31.845Z,13.20
2018-04-12T19:44:59.673Z,13.10
2018-04-12T19:47:27.633Z,13.00
2018-04-12T19:49:55.394Z,12.90
2018-04-12T19:52:23.780Z,12.90
2018-04-12T19:54:51.872Z,12.80
2018-04-12T19:57:19.709Z,12.70
2018-04-12T19:59:47.520Z,12.80
2018-04-12T20:02:16.325Z,12.70
2018-04-12T20:04:44.861Z,12.70
2018-04-12T20:07:13.535Z,12.60
2018-04-12T20:09:41.421Z,12.60
2018-04-12T20:12:09.264Z,12.60
2018-04-12T20:14:37.799Z,12.50
2018-04-12T20:17:05.487Z,12.30
2018-04-12T20:19:33.200Z,12.20
2018-04-12T20:22:02.114Z,12.20
2018-04-12T20:24:29.900Z,12.10
2018-04-12T20:26:57.549Z,12.00
2018-04-12T20:29:25.515Z,11.90
2018-04-12T20:31:53.424Z,11.90
2018-04-12T20:34:21.165Z,11.80
2018-04-12T20:36:48.884Z,11.80
2018-04-12T20:39:16.631Z,11.70
2018-04-12T20:41:44.421Z,11.70
2018-04-12T20:44:12.204Z,11.70
2018-04-12T20:46:40.056Z,11.70
2018-04-12T20:49:07.714Z,11.60
2018-04-12T20:51:35.392Z,11.60
2018-04-12T20:54:03.390Z,11.50
2018-04-12T20:56:30.998Z,11.50
2018-04-12T20:58:59.755Z,11.40
2018-04-12T21:01:27.383Z,11.10
2018-04-12T21:03:55.075Z,11.40
2018-04-12T21:06:22.695Z,11.30
2018-04-12T21:08:50.344Z,11.30
2018-04-12T21:11:18.727Z,11.10
2018-04-12T21:13:46.427Z,11.10
2018-04-12T21:16:14.134Z,11.10
2018-04-12T21:18:41.776Z,10.90
2018-04-12T21:21:09.363Z,10.80
2018-04-12T21:23:37.006Z,10.80
2018-04-12T21:26:05.420Z,10.70
2018-04-12T21:28:33.023Z,10.70
2018-04-12T21:31:00.642Z,10.60
2018-04-12T21:33:28.263Z,10.60
2018-04-12T21:35:55.952Z,10.60
2018-04-12T21:38:23.548Z,10.60
2018-04-12T21:40:51.173Z,10.70
2018-04-12T21:43:19.553Z,10.70
2018-04-12T21:45:47.161Z,10.70
2018-04-12T21:48:14.753Z,10.70
2018-04-12T21:50:42.445Z,10.70
2018-04-12T21:53:10.050Z,10.70
2018-04-12T21:55:37.676Z,10.70
2018-04-12T21:58:05.282Z,10.60
2018-04-12T22:00:32.969Z,10.60
2018-04-12T22:03:01.324Z,10.80
2018-04-12T22:05:29.778Z,10.90
2018-04-12T22:07:57.393Z,10.60
2018-04-12T22:10:25.029Z,11.00
2018-04-12T22:12:53.446Z,11.40
2018-04-12T22:15:21.052Z,11.40
2018-04-12T22:17:48.641Z,11.40
2018-04-12T22:20:16.283Z,11.40
2018-04-12T22:22:44.671Z,11.50
2018-04-12T22:25:13.092Z,11.50
2018-04-12T22:27:40.735Z,11.40
2018-04-12T22:30:08.372Z,11.50
2018-04-12T22:32:37.684Z,11.50
2018-04-12T22:35:06.045Z,11.60
2018-04-12T22:37:34.459Z,11.60
2018-04-12T22:40:02.028Z,11.60
2018-04-12T22:42:29.777Z,11.60
2018-04-12T22:44:58.173Z,11.70
2018-04-12T22:47:25.828Z,11.60
2018-04-12T22:49:53.482Z,11.70
2018-04-12T22:52:21.121Z,11.70
2018-04-12T22:54:49.518Z,11.70
2018-04-12T22:57:17.148Z,11.60
2018-04-12T22:59:45.485Z,11.70
2018-04-12T23:02:13.177Z,11.70
2018-04-12T23:04:41.517Z,11.70
2018-04-12T23:07:09.127Z,11.70
2018-04-12T23:09:36.740Z,11.80
2018-04-12T23:12:04.999Z,11.70
2018-04-12T23:14:32.641Z,11.70
2018-04-12T23:17:00.244Z,11.90
2018-04-12T23:19:27.803Z,11.90
2018-04-12T23:21:55.408Z,11.70
2018-04-12T23:24:23.064Z,11.50
2018-04-12T23:26:51.469Z,11.20
2018-04-12T23:29:19.138Z,11.20
2018-04-12T23:31:46.742Z,11.00
2018-04-12T23:34:15.186Z,10.80
2018-04-12T23:36:42.805Z,10.80
2018-04-12T23:39:11.200Z,10.70
2018-04-12T23:41:38.817Z,10.70
2018-04-12T23:44:06.488Z,10.70
2018-04-12T23:46:34.115Z,10.70
2018-04-12T23:49:01.822Z,10.60
2018-04-12T23:51:30.228Z,10.60
2018-04-12T23:53:57.860Z,10.60
2018-04-12T23:56:25.480Z,10.50
2018-04-12T23:58:53.106Z,10.50
